sensor_id;sensor_type;location;lat;lon;timestamp;temperature;humidity
12682;DHT22;6405;59.208;18.216;2023-01-15T00:01:28;4.10;99.90
12682;DHT22;6405;59.208;18.216;2023-01-15T00:03:57;4.20;99.90
12682;DHT22;6405;59.208;18.216;2023-01-15T00:06:26;4.10;99.90
12682;DHT22;6405;59.208;18.216;2023-01-15T00:08:53;4.10;99.90
12682;DHT22;6405;59.208;18.216;2023-01-15T00:11:21;4.10;99.90
12682;DHT22;6405;59.208;18.216;2023-01-15T00:13:49;4.10;99.90
12682;DHT22;6405;59.208;18.216;2023-01-15T00:16:21;4.10;99.90
12682;DHT22;6405;59.208;18.216;2023-01-15T00:18:54;4.10;99.90
12682;DHT22;6405;59.208;18.216;2023-01-15T00:21:22;4.10;99.90
12682;DHT22;6405;59.208;18.216;2023-01-15T00:23:49;4.00;99.90
12682;DHT22;6405;59.208;18.216;2023-01-15T00:26:36;4.10;99.90
12682;DHT22;6405;59.208;18.216;2023-01-15T00:29:23;4.00;99.90
12682;DHT22;6405;59.208;18.216;2023-01-15T00:31:59;4.00;99.90
12682;DHT22;6405;59.208;18.216;2023-01-15T00:34:27;4.00;99.90
12682;DHT22;6405;59.208;18.216;2023-01-15T00:36:56;4.00;99.90
12682;DHT22;6405;59.208;18.216;2023-01-15T00:39:23;3.90;99.90
12682;DHT22;6405;59.208;18.216;2023-01-15T00:41:50;3.90;99.90
12682;DHT22;6405;59.208;18.216;2023-01-15T00:44:16;3.90;99.90
12682;DHT22;6405;59.208;18.216;2023-01-15T00:46:44;3.90;99.90
12682;DHT22;6405;59.208;18.216;2023-01-15T00:49:11;3.90;99.90
12682;DHT22;6405;59.208;18.216;2023-01-15T00:51:37;3.90;99.90
12682;DHT22;6405;59.208;18.216;2023-01-15T00:54:05;3.90;99.90
12682;DHT22;6405;59.208;18.216;2023-01-15T00:56:31;3.80;99.90
12682;DHT22;6405;59.208;18.216;2023-01-15T00:59:01;3.90;99.90
12682;DHT22;6405;59.208;18.216;2023-01-15T01:01:31;3.80;99.90
12682;DHT22;6405;59.208;18.216;2023-01-15T01:03:58;3.80;99.90
12682;DHT22;6405;59.208;18.216;2023-01-15T01:06:24;3.80;99.90
12682;DHT22;6405;59.208;18.216;2023-01-15T01:08:51;3.80;99.90
12682;DHT22;6405;59.208;18.216;2023-01-15T01:11:19;3.70;99.90
12682;DHT22;6405;59.208;18.216;2023-01-15T01:13:46;3.70;99.90
12682;DHT22;6405;59.208;18.216;2023-01-15T01:16:28;3.70;99.90
12682;DHT22;6405;59.208;18.216;2023-01-15T01:19:00;3.70;99.90
12682;DHT22;6405;59.208;18.216;2023-01-15T01:21:29;3.70;99.90
12682;DHT22;6405;59.208;18.216;2023-01-15T01:24:00;3.70;99.90
12682;DHT22;6405;59.208;18.216;2023-01-15T01:26:28;3.60;99.90
12682;DHT22;6405;59.208;18.216;2023-01-15T01:28:56;3.60;99.90
12682;DHT22;6405;59.208;18.216;2023-01-15T01:31:24;3.60;99.90
12682;DHT22;6405;59.208;18.216;2023-01-15T01:33:52;3.70;99.90
12682;DHT22;6405;59.208;18.216;2023-01-15T01:36:29;3.60;99.90
12682;DHT22;6405;59.208;18.216;2023-01-15T01:38:58;3.60;99.90
12682;DHT22;6405;59.208;18.216;2023-01-15T01:41:25;3.60;99.90
12682;DHT22;6405;59.208;18.216;2023-01-15T01:44:53;3.60;99.90
12682;DHT22;6405;59.208;18.216;2023-01-15T01:46:53;3.60;99.90
12682;DHT22;6405;59.208;18.216;2023-01-15T01:49:20;3.60;99.90
12682;DHT22;6405;59.208;18.216;2023-01-15T01:51:50;3.60;99.90
12682;DHT22;6405;59.208;18.216;2023-01-15T01:54:20;3.50;99.90
12682;DHT22;6405;59.208;18.216;2023-01-15T01:56:49;3.50;99.90
12682;DHT22;6405;59.208;18.216;2023-01-15T01:59:17;3.50;99.90
12682;DHT22;6405;59.208;18.216;2023-01-15T02:01:47;3.50;99.90
12682;DHT22;6405;59.208;18.216;2023-01-15T02:04:17;3.40;99.90
12682;DHT22;6405;59.208;18.216;2023-01-15T02:06:45;3.50;99.90
12682;DHT22;6405;59.208;18.216;2023-01-15T02:09:13;3.40;99.90
12682;DHT22;6405;59.208;18.216;2023-01-15T02:11:41;3.40;99.90
12682;DHT22;6405;59.208;18.216;2023-01-15T02:14:21;3.40;99.90
12682;DHT22;6405;59.208;18.216;2023-01-15T02:17:05;3.30;99.90
12682;DHT22;6405;59.208;18.216;2023-01-15T02:22:40;3.30;99.90
12682;DHT22;6405;59.208;18.216;2023-01-15T02:28:12;3.20;99.90
12682;DHT22;6405;59.208;18.216;2023-01-15T02:30:44;3.20;99.90
12682;DHT22;6405;59.208;18.216;2023-01-15T02:33:30;3.20;99.90
12682;DHT22;6405;59.208;18.216;2023-01-15T02:35:58;3.10;99.90
12682;DHT22;6405;59.208;18.216;2023-01-15T02:38:38;3.10;99.90
12682;DHT22;6405;59.208;18.216;2023-01-15T02:41:08;3.10;99.90
12682;DHT22;6405;59.208;18.216;2023-01-15T02:43:49;3.10;99.90
12682;DHT22;6405;59.208;18.216;2023-01-15T02:46:18;3.10;99.90
12682;DHT22;6405;59.208;18.216;2023-01-15T02:48:46;3.00;99.90
12682;DHT22;6405;59.208;18.216;2023-01-15T02:51:19;3.10;99.90
12682;DHT22;6405;59.208;18.216;2023-01-15T02:53:48;3.10;99.90
12682;DHT22;6405;59.208;18.216;2023-01-15T02:56:20;3.00;99.90
12682;DHT22;6405;59.208;18.216;2023-01-15T02:58:52;3.10;99.90
12682;DHT22;6405;59.208;18.216;2023-01-15T03:01:29;3.00;99.90
12682;DHT22;6405;59.208;18.216;2023-01-15T03:04:02;3.10;99.90
12682;DHT22;6405;59.208;18.216;2023-01-15T03:06:40;3.10;99.90
12682;DHT22;6405;59.208;18.216;2023-01-15T03:09:08;3.10;99.90
12682;DHT22;6405;59.208;18.216;2023-01-15T03:11:43;3.10;99.90
12682;DHT22;6405;59.208;18.216;2023-01-15T03:14:25;3.10;99.90
12682;DHT22;6405;59.208;18.216;2023-01-15T03:17:09;3.10;99.90
12682;DHT22;6405;59.208;18.216;2023-01-15T03:19:48;3.10;99.90
12682;DHT22;6405;59.208;18.216;2023-01-15T03:22:20;3.00;99.90
12682;DHT22;6405;59.208;18.216;2023-01-15T03:25:10;3.00;99.90
12682;DHT22;6405;59.208;18.216;2023-01-15T03:27:36;3.00;99.90
12682;DHT22;6405;59.208;18.216;2023-01-15T03:30:18;3.00;99.90
12682;DHT22;6405;59.208;18.216;2023-01-15T03:32:45;3.00;99.90
12682;DHT22;6405;59.208;18.216;2023-01-15T03:35:46;3.00;99.90
12682;DHT22;6405;59.208;18.216;2023-01-15T03:38:24;3.00;99.90
12682;DHT22;6405;59.208;18.216;2023-01-15T03:43:33;3.00;99.90
12682;DHT22;6405;59.208;18.216;2023-01-15T03:46:29;3.10;99.90
12682;DHT22;6405;59.208;18.216;2023-01-15T03:51:39;3.10;99.90
12682;DHT22;6405;59.208;18.216;2023-01-15T03:54:12;3.10;99.90
12682;DHT22;6405;59.208;18.216;2023-01-15T03:56:45;3.20;99.90
12682;DHT22;6405;59.208;18.216;2023-01-15T03:59:31;3.20;99.90
12682;DHT22;6405;59.208;18.216;2023-01-15T04:02:00;3.30;99.90
12682;DHT22;6405;59.208;18.216;2023-01-15T04:04:30;3.30;99.90
12682;DHT22;6405;59.208;18.216;2023-01-15T04:06:58;3.30;99.90
12682;DHT22;6405;59.208;18.216;2023-01-15T04:09:25;3.30;99.90
12682;DHT22;6405;59.208;18.216;2023-01-15T04:11:52;3.40;99.90
12682;DHT22;6405;59.208;18.216;2023-01-15T04:14:19;3.40;99.90
12682;DHT22;6405;59.208;18.216;2023-01-15T04:16:47;3.40;99.90
12682;DHT22;6405;59.208;18.216;2023-01-15T04:19:14;3.50;99.90
12682;DHT22;6405;59.208;18.216;2023-01-15T04:21:41;3.50;99.90
12682;DHT22;6405;59.208;18.216;2023-01-15T04:24:08;3.50;99.90
12682;DHT22;6405;59.208;18.216;2023-01-15T04:26:34;3.50;99.90
12682;DHT22;6405;59.208;18.216;2023-01-15T04:29:01;3.50;99.90
12682;DHT22;6405;59.208;18.216;2023-01-15T04:31:28;3.60;99.90
12682;DHT22;6405;59.208;18.216;2023-01-15T04:33:59;3.60;99.90
12682;DHT22;6405;59.208;18.216;2023-01-15T04:36:26;3.60;99.90
12682;DHT22;6405;59.208;18.216;2023-01-15T04:38:54;3.60;99.90
12682;DHT22;6405;59.208;18.216;2023-01-15T04:41:23;3.70;99.90
12682;DHT22;6405;59.208;18.216;2023-01-15T04:44:07;3.70;99.90
12682;DHT22;6405;59.208;18.216;2023-01-15T04:46:36;3.80;99.90
12682;DHT22;6405;59.208;18.216;2023-01-15T04:49:07;3.80;99.90
12682;DHT22;6405;59.208;18.216;2023-01-15T04:51:34;3.80;99.90
12682;DHT22;6405;59.208;18.216;2023-01-15T04:54:03;3.90;99.90
12682;DHT22;6405;59.208;18.216;2023-01-15T04:56:35;3.90;99.90
12682;DHT22;6405;59.208;18.216;2023-01-15T04:59:02;3.90;99.90
12682;DHT22;6405;59.208;18.216;2023-01-15T05:01:29;3.90;99.90
12682;DHT22;6405;59.208;18.216;2023-01-15T05:03:55;4.00;99.90
12682;DHT22;6405;59.208;18.216;2023-01-15T05:06:24;4.00;99.90
12682;DHT22;6405;59.208;18.216;2023-01-15T05:08:51;4.10;99.90
12682;DHT22;6405;59.208;18.216;2023-01-15T05:11:18;4.10;99.90
12682;DHT22;6405;59.208;18.216;2023-01-15T05:13:45;4.20;99.90
12682;DHT22;6405;59.208;18.216;2023-01-15T05:16:17;4.20;99.90
12682;DHT22;6405;59.208;18.216;2023-01-15T05:18:46;4.20;99.90
12682;DHT22;6405;59.208;18.216;2023-01-15T05:21:18;4.30;99.90
12682;DHT22;6405;59.208;18.216;2023-01-15T05:23:50;4.30;99.90
12682;DHT22;6405;59.208;18.216;2023-01-15T05:26:18;4.30;99.90
12682;DHT22;6405;59.208;18.216;2023-01-15T05:28:46;4.40;99.90
12682;DHT22;6405;59.208;18.216;2023-01-15T05:31:16;4.40;99.90
12682;DHT22;6405;59.208;18.216;2023-01-15T05:33:43;4.40;99.90
12682;DHT22;6405;59.208;18.216;2023-01-15T05:36:13;4.40;99.90
12682;DHT22;6405;59.208;18.216;2023-01-15T05:38:39;4.40;99.90
12682;DHT22;6405;59.208;18.216;2023-01-15T05:41:11;4.40;99.90
12682;DHT22;6405;59.208;18.216;2023-01-15T05:44:01;4.40;99.90
12682;DHT22;6405;59.208;18.216;2023-01-15T05:46:28;4.40;99.90
12682;DHT22;6405;59.208;18.216;2023-01-15T05:48:53;4.40;99.90
12682;DHT22;6405;59.208;18.216;2023-01-15T05:51:20;4.40;99.90
12682;DHT22;6405;59.208;18.216;2023-01-15T05:53:47;4.40;99.90
12682;DHT22;6405;59.208;18.216;2023-01-15T05:56:13;4.40;99.90
12682;DHT22;6405;59.208;18.216;2023-01-15T05:58:39;4.40;99.90
12682;DHT22;6405;59.208;18.216;2023-01-15T06:01:08;4.40;99.90
12682;DHT22;6405;59.208;18.216;2023-01-15T06:03:35;4.40;99.90
12682;DHT22;6405;59.208;18.216;2023-01-15T06:06:04;4.40;99.90
12682;DHT22;6405;59.208;18.216;2023-01-15T06:08:30;4.40;99.90
12682;DHT22;6405;59.208;18.216;2023-01-15T06:10:56;4.40;99.90
12682;DHT22;6405;59.208;18.216;2023-01-15T06:13:23;4.40;99.90
12682;DHT22;6405;59.208;18.216;2023-01-15T06:15:51;4.40;99.90
12682;DHT22;6405;59.208;18.216;2023-01-15T06:18:16;4.40;99.90
12682;DHT22;6405;59.208;18.216;2023-01-15T06:20:42;4.30;99.90
12682;DHT22;6405;59.208;18.216;2023-01-15T06:23:08;4.30;99.90
12682;DHT22;6405;59.208;18.216;2023-01-15T06:25:35;4.30;99.90
12682;DHT22;6405;59.208;18.216;2023-01-15T06:28:06;4.30;99.90
12682;DHT22;6405;59.208;18.216;2023-01-15T06:30:34;4.20;99.90
12682;DHT22;6405;59.208;18.216;2023-01-15T06:33:01;4.20;99.90
12682;DHT22;6405;59.208;18.216;2023-01-15T06:35:28;4.20;99.90
12682;DHT22;6405;59.208;18.216;2023-01-15T06:37:55;4.10;99.90
12682;DHT22;6405;59.208;18.216;2023-01-15T06:40:23;4.10;99.90
12682;DHT22;6405;59.208;18.216;2023-01-15T06:42:52;4.10;99.90
12682;DHT22;6405;59.208;18.216;2023-01-15T06:45:38;4.00;99.90
12682;DHT22;6405;59.208;18.216;2023-01-15T06:48:25;4.00;99.90
12682;DHT22;6405;59.208;18.216;2023-01-15T06:50:52;4.00;99.90
12682;DHT22;6405;59.208;18.216;2023-01-15T06:53:21;3.90;99.90
12682;DHT22;6405;59.208;18.216;2023-01-15T06:55:48;3.90;99.90
12682;DHT22;6405;59.208;18.216;2023-01-15T06:58:15;3.90;99.90
12682;DHT22;6405;59.208;18.216;2023-01-15T07:00:43;3.90;99.90
12682;DHT22;6405;59.208;18.216;2023-01-15T07:03:10;3.90;99.90
12682;DHT22;6405;59.208;18.216;2023-01-15T07:05:39;3.90;99.90
12682;DHT22;6405;59.208;18.216;2023-01-15T07:08:05;3.80;99.90
12682;DHT22;6405;59.208;18.216;2023-01-15T07:10:35;3.80;99.90
12682;DHT22;6405;59.208;18.216;2023-01-15T07:13:00;3.90;99.90
12682;DHT22;6405;59.208;18.216;2023-01-15T07:15:28;3.90;99.90
12682;DHT22;6405;59.208;18.216;2023-01-15T07:17:55;3.90;99.90
12682;DHT22;6405;59.208;18.216;2023-01-15T07:20:21;3.90;99.90
12682;DHT22;6405;59.208;18.216;2023-01-15T07:22:50;3.90;99.90
12682;DHT22;6405;59.208;18.216;2023-01-15T07:25:17;3.90;99.90
12682;DHT22;6405;59.208;18.216;2023-01-15T07:27:45;3.80;99.90
12682;DHT22;6405;59.208;18.216;2023-01-15T07:30:13;3.90;99.90
12682;DHT22;6405;59.208;18.216;2023-01-15T07:32:41;3.90;99.90
12682;DHT22;6405;59.208;18.216;2023-01-15T07:35:08;3.80;99.90
12682;DHT22;6405;59.208;18.216;2023-01-15T07:37:37;3.90;99.90
12682;DHT22;6405;59.208;18.216;2023-01-15T07:40:05;3.90;99.90
12682;DHT22;6405;59.208;18.216;2023-01-15T07:42:32;3.90;99.90
12682;DHT22;6405;59.208;18.216;2023-01-15T07:45:16;3.90;99.90
12682;DHT22;6405;59.208;18.216;2023-01-15T07:48:01;3.90;99.90
12682;DHT22;6405;59.208;18.216;2023-01-15T07:50:46;3.90;99.90
12682;DHT22;6405;59.208;18.216;2023-01-15T07:53:14;3.90;99.90
12682;DHT22;6405;59.208;18.216;2023-01-15T07:55:41;3.90;99.90
12682;DHT22;6405;59.208;18.216;2023-01-15T07:58:09;3.90;99.90
12682;DHT22;6405;59.208;18.216;2023-01-15T08:00:35;3.90;99.90
12682;DHT22;6405;59.208;18.216;2023-01-15T08:03:01;3.90;99.90
12682;DHT22;6405;59.208;18.216;2023-01-15T08:05:28;3.90;99.90
12682;DHT22;6405;59.208;18.216;2023-01-15T08:07:55;3.90;99.90
12682;DHT22;6405;59.208;18.216;2023-01-15T08:10:21;3.90;99.90
12682;DHT22;6405;59.208;18.216;2023-01-15T08:12:50;3.90;99.90
12682;DHT22;6405;59.208;18.216;2023-01-15T08:15:39;3.90;99.90
12682;DHT22;6405;59.208;18.216;2023-01-15T08:18:06;3.90;99.90
12682;DHT22;6405;59.208;18.216;2023-01-15T08:20:34;3.90;99.90
12682;DHT22;6405;59.208;18.216;2023-01-15T08:23:01;3.90;99.90
12682;DHT22;6405;59.208;18.216;2023-01-15T08:25:29;3.80;99.90
12682;DHT22;6405;59.208;18.216;2023-01-15T08:28:00;3.80;99.90
12682;DHT22;6405;59.208;18.216;2023-01-15T08:30:27;3.80;99.90
12682;DHT22;6405;59.208;18.216;2023-01-15T08:32:58;3.70;99.90
12682;DHT22;6405;59.208;18.216;2023-01-15T08:35:25;3.70;99.90
12682;DHT22;6405;59.208;18.216;2023-01-15T08:37:51;3.70;99.90
12682;DHT22;6405;59.208;18.216;2023-01-15T08:40:17;3.70;99.90
12682;DHT22;6405;59.208;18.216;2023-01-15T08:42:45;3.60;99.90
12682;DHT22;6405;59.208;18.216;2023-01-15T08:45:12;3.60;99.90
12682;DHT22;6405;59.208;18.216;2023-01-15T08:47:39;3.50;99.90
12682;DHT22;6405;59.208;18.216;2023-01-15T08:50:07;3.50;99.90
12682;DHT22;6405;59.208;18.216;2023-01-15T08:52:34;3.50;99.90
12682;DHT22;6405;59.208;18.216;2023-01-15T08:55:01;3.50;99.90
12682;DHT22;6405;59.208;18.216;2023-01-15T08:57:28;3.40;99.90
12682;DHT22;6405;59.208;18.216;2023-01-15T08:59:54;3.40;99.90
12682;DHT22;6405;59.208;18.216;2023-01-15T09:02:22;3.40;99.90
12682;DHT22;6405;59.208;18.216;2023-01-15T09:04:48;3.40;99.90
12682;DHT22;6405;59.208;18.216;2023-01-15T09:07:14;3.40;99.90
12682;DHT22;6405;59.208;18.216;2023-01-15T09:09:41;3.30;99.90
12682;DHT22;6405;59.208;18.216;2023-01-15T09:12:08;3.30;99.90
12682;DHT22;6405;59.208;18.216;2023-01-15T09:14:35;3.20;99.90
12682;DHT22;6405;59.208;18.216;2023-01-15T09:17:03;3.20;99.90
12682;DHT22;6405;59.208;18.216;2023-01-15T09:19:29;3.20;99.90
12682;DHT22;6405;59.208;18.216;2023-01-15T09:21:55;3.10;99.90
12682;DHT22;6405;59.208;18.216;2023-01-15T09:24:23;3.10;99.90
12682;DHT22;6405;59.208;18.216;2023-01-15T09:26:49;3.10;99.90
12682;DHT22;6405;59.208;18.216;2023-01-15T09:29:18;3.10;99.90
12682;DHT22;6405;59.208;18.216;2023-01-15T09:31:45;3.10;99.90
12682;DHT22;6405;59.208;18.216;2023-01-15T09:34:11;3.00;99.90
12682;DHT22;6405;59.208;18.216;2023-01-15T09:36:39;3.10;99.90
12682;DHT22;6405;59.208;18.216;2023-01-15T09:39:07;3.00;99.90
12682;DHT22;6405;59.208;18.216;2023-01-15T09:44:38;2.90;99.90
12682;DHT22;6405;59.208;18.216;2023-01-15T09:47:18;2.90;99.90
12682;DHT22;6405;59.208;18.216;2023-01-15T09:55:25;2.80;99.90
12682;DHT22;6405;59.208;18.216;2023-01-15T09:57:59;2.90;99.90
12682;DHT22;6405;59.208;18.216;2023-01-15T10:00:34;2.90;99.90
12682;DHT22;6405;59.208;18.216;2023-01-15T10:08:33;3.00;99.90
12682;DHT22;6405;59.208;18.216;2023-01-15T10:11:04;3.00;99.90
12682;DHT22;6405;59.208;18.216;2023-01-15T10:14:08;3.00;99.90
12682;DHT22;6405;59.208;18.216;2023-01-15T10:16:37;3.00;99.90
12682;DHT22;6405;59.208;18.216;2023-01-15T10:19:04;3.00;99.90
12682;DHT22;6405;59.208;18.216;2023-01-15T10:21:49;3.00;99.90
12682;DHT22;6405;59.208;18.216;2023-01-15T10:24:38;3.00;99.90
12682;DHT22;6405;59.208;18.216;2023-01-15T10:27:20;3.10;99.90
12682;DHT22;6405;59.208;18.216;2023-01-15T10:30:00;3.10;99.90
12682;DHT22;6405;59.208;18.216;2023-01-15T10:32:45;3.20;99.90
12682;DHT22;6405;59.208;18.216;2023-01-15T10:37:56;3.30;99.90
12682;DHT22;6405;59.208;18.216;2023-01-15T10:43:22;3.50;99.90
12682;DHT22;6405;59.208;18.216;2023-01-15T10:46:16;3.50;99.90
12682;DHT22;6405;59.208;18.216;2023-01-15T10:48:45;3.60;99.90
12682;DHT22;6405;59.208;18.216;2023-01-15T10:51:19;3.70;99.90
12682;DHT22;6405;59.208;18.216;2023-01-15T10:54:06;3.80;99.90
12682;DHT22;6405;59.208;18.216;2023-01-15T10:57:06;3.80;99.90
12682;DHT22;6405;59.208;18.216;2023-01-15T11:05:10;3.90;99.90
12682;DHT22;6405;59.208;18.216;2023-01-15T11:07:40;3.90;99.90
12682;DHT22;6405;59.208;18.216;2023-01-15T11:10:10;3.90;99.90
12682;DHT22;6405;59.208;18.216;2023-01-15T11:12:51;3.90;99.90
12682;DHT22;6405;59.208;18.216;2023-01-15T11:15:38;4.00;99.90
12682;DHT22;6405;59.208;18.216;2023-01-15T11:18:32;4.00;99.90
12682;DHT22;6405;59.208;18.216;2023-01-15T11:21:20;4.00;99.90
12682;DHT22;6405;59.208;18.216;2023-01-15T11:23:49;4.10;99.90
12682;DHT22;6405;59.208;18.216;2023-01-15T11:26:22;4.10;99.90
12682;DHT22;6405;59.208;18.216;2023-01-15T11:28:49;3.90;99.90
12682;DHT22;6405;59.208;18.216;2023-01-15T11:31:19;4.10;99.90
12682;DHT22;6405;59.208;18.216;2023-01-15T11:34:00;4.10;99.90
12682;DHT22;6405;59.208;18.216;2023-01-15T11:36:28;4.00;99.90
12682;DHT22;6405;59.208;18.216;2023-01-15T11:38:56;4.10;99.90
12682;DHT22;6405;59.208;18.216;2023-01-15T11:41:33;4.10;99.90
12682;DHT22;6405;59.208;18.216;2023-01-15T11:44:21;4.20;99.90
12682;DHT22;6405;59.208;18.216;2023-01-15T11:47:27;4.30;99.90
12682;DHT22;6405;59.208;18.216;2023-01-15T11:50:17;4.30;99.90
12682;DHT22;6405;59.208;18.216;2023-01-15T11:53:07;4.30;99.90
12682;DHT22;6405;59.208;18.216;2023-01-15T11:55:34;4.30;99.90
12682;DHT22;6405;59.208;18.216;2023-01-15T11:58:01;4.30;99.90
12682;DHT22;6405;59.208;18.216;2023-01-15T12:00:31;4.30;99.90
12682;DHT22;6405;59.208;18.216;2023-01-15T12:03:12;4.30;99.90
12682;DHT22;6405;59.208;18.216;2023-01-15T12:05:52;4.20;99.90
12682;DHT22;6405;59.208;18.216;2023-01-15T12:08:48;4.20;99.90
12682;DHT22;6405;59.208;18.216;2023-01-15T12:25:46;4.00;99.90
12682;DHT22;6405;59.208;18.216;2023-01-15T12:30:58;3.90;99.90
12682;DHT22;6405;59.208;18.216;2023-01-15T12:33:35;3.80;99.90
12682;DHT22;6405;59.208;18.216;2023-01-15T12:36:14;3.70;99.90
12682;DHT22;6405;59.208;18.216;2023-01-15T12:41:14;3.70;99.90
12682;DHT22;6405;59.208;18.216;2023-01-15T12:43:45;3.70;99.90
12682;DHT22;6405;59.208;18.216;2023-01-15T12:46:33;3.60;99.90
12682;DHT22;6405;59.208;18.216;2023-01-15T12:51:56;3.50;99.90
12682;DHT22;6405;59.208;18.216;2023-01-15T12:54:37;3.50;99.90
12682;DHT22;6405;59.208;18.216;2023-01-15T12:57:17;3.50;99.90
12682;DHT22;6405;59.208;18.216;2023-01-15T12:59:52;3.60;99.90
12682;DHT22;6405;59.208;18.216;2023-01-15T13:02:34;3.70;99.90
12682;DHT22;6405;59.208;18.216;2023-01-15T13:05:18;3.70;99.90
12682;DHT22;6405;59.208;18.216;2023-01-15T13:07:52;3.70;99.90
12682;DHT22;6405;59.208;18.216;2023-01-15T13:10:25;3.70;99.90
12682;DHT22;6405;59.208;18.216;2023-01-15T13:13:12;3.70;99.90
12682;DHT22;6405;59.208;18.216;2023-01-15T13:15:45;3.80;99.90
12682;DHT22;6405;59.208;18.216;2023-01-15T13:20:49;3.80;99.90
12682;DHT22;6405;59.208;18.216;2023-01-15T13:23:42;3.80;99.90
12682;DHT22;6405;59.208;18.216;2023-01-15T13:29:08;3.90;99.90
12682;DHT22;6405;59.208;18.216;2023-01-15T13:31:59;3.90;99.90
12682;DHT22;6405;59.208;18.216;2023-01-15T13:34:42;3.90;99.90
12682;DHT22;6405;59.208;18.216;2023-01-15T13:37:50;3.80;99.90
12682;DHT22;6405;59.208;18.216;2023-01-15T13:40:24;3.80;99.90
12682;DHT22;6405;59.208;18.216;2023-01-15T13:42:52;3.70;99.90
12682;DHT22;6405;59.208;18.216;2023-01-15T13:45:33;3.70;99.90
12682;DHT22;6405;59.208;18.216;2023-01-15T13:48:26;3.70;99.90
12682;DHT22;6405;59.208;18.216;2023-01-15T13:51:00;3.70;99.90
12682;DHT22;6405;59.208;18.216;2023-01-15T13:53:31;3.80;99.90
12682;DHT22;6405;59.208;18.216;2023-01-15T13:56:00;3.80;99.90
12682;DHT22;6405;59.208;18.216;2023-01-15T13:58:33;3.70;99.90
12682;DHT22;6405;59.208;18.216;2023-01-15T14:06:50;3.60;99.90
12682;DHT22;6405;59.208;18.216;2023-01-15T14:25:54;3.40;99.90
12682;DHT22;6405;59.208;18.216;2023-01-15T14:34:21;3.60;99.90
12682;DHT22;6405;59.208;18.216;2023-01-15T14:36:58;3.60;99.90
12682;DHT22;6405;59.208;18.216;2023-01-15T14:39:52;3.70;99.90
12682;DHT22;6405;59.208;18.216;2023-01-15T14:47:44;3.70;99.90
12682;DHT22;6405;59.208;18.216;2023-01-15T14:50:36;3.60;99.90
12682;DHT22;6405;59.208;18.216;2023-01-15T14:55:57;3.40;99.90
12682;DHT22;6405;59.208;18.216;2023-01-15T15:01:03;3.40;99.90
12682;DHT22;6405;59.208;18.216;2023-01-15T15:03:35;3.40;99.90
12682;DHT22;6405;59.208;18.216;2023-01-15T15:06:04;3.40;99.90
12682;DHT22;6405;59.208;18.216;2023-01-15T15:08:32;3.40;99.90
12682;DHT22;6405;59.208;18.216;2023-01-15T15:11:01;3.40;99.90
12682;DHT22;6405;59.208;18.216;2023-01-15T15:13:51;3.30;99.90
12682;DHT22;6405;59.208;18.216;2023-01-15T15:16:27;3.30;99.90
12682;DHT22;6405;59.208;18.216;2023-01-15T15:19:03;3.20;99.90
12682;DHT22;6405;59.208;18.216;2023-01-15T15:21:36;3.10;99.90
12682;DHT22;6405;59.208;18.216;2023-01-15T15:24:11;3.00;99.90
12682;DHT22;6405;59.208;18.216;2023-01-15T15:26:40;2.90;99.90
12682;DHT22;6405;59.208;18.216;2023-01-15T15:34:16;2.80;99.90
12682;DHT22;6405;59.208;18.216;2023-01-15T15:36:46;2.70;99.90
12682;DHT22;6405;59.208;18.216;2023-01-15T15:39:19;2.70;99.90
12682;DHT22;6405;59.208;18.216;2023-01-15T15:41:48;2.70;99.90
12682;DHT22;6405;59.208;18.216;2023-01-15T15:44:50;2.60;99.90
12682;DHT22;6405;59.208;18.216;2023-01-15T15:47:40;2.60;99.90
12682;DHT22;6405;59.208;18.216;2023-01-15T15:50:31;2.60;99.90
12682;DHT22;6405;59.208;18.216;2023-01-15T15:52:59;2.50;99.90
12682;DHT22;6405;59.208;18.216;2023-01-15T15:55:39;2.50;99.90
12682;DHT22;6405;59.208;18.216;2023-01-15T15:58:07;2.50;99.90
12682;DHT22;6405;59.208;18.216;2023-01-15T16:00:39;2.50;99.90
12682;DHT22;6405;59.208;18.216;2023-01-15T16:03:22;2.50;99.90
12682;DHT22;6405;59.208;18.216;2023-01-15T16:06:00;2.50;99.90
12682;DHT22;6405;59.208;18.216;2023-01-15T16:08:29;2.60;99.90
12682;DHT22;6405;59.208;18.216;2023-01-15T16:10:59;2.60;99.90
12682;DHT22;6405;59.208;18.216;2023-01-15T16:13:39;2.70;99.90
12682;DHT22;6405;59.208;18.216;2023-01-15T16:16:09;2.60;99.90
12682;DHT22;6405;59.208;18.216;2023-01-15T16:21:16;2.70;99.90
12682;DHT22;6405;59.208;18.216;2023-01-15T16:23:55;2.70;99.90
12682;DHT22;6405;59.208;18.216;2023-01-15T16:26:27;2.70;99.90
12682;DHT22;6405;59.208;18.216;2023-01-15T16:28:58;2.70;99.90
12682;DHT22;6405;59.208;18.216;2023-01-15T16:31:34;2.80;99.90
12682;DHT22;6405;59.208;18.216;2023-01-15T16:34:04;2.90;99.90
12682;DHT22;6405;59.208;18.216;2023-01-15T16:36:38;2.80;99.90
12682;DHT22;6405;59.208;18.216;2023-01-15T16:39:27;2.80;99.90
12682;DHT22;6405;59.208;18.216;2023-01-15T16:41:57;2.90;99.90
12682;DHT22;6405;59.208;18.216;2023-01-15T16:44:38;3.00;99.90
12682;DHT22;6405;59.208;18.216;2023-01-15T16:47:06;2.90;99.90
12682;DHT22;6405;59.208;18.216;2023-01-15T16:49:33;2.90;99.90
12682;DHT22;6405;59.208;18.216;2023-01-15T16:52:02;2.90;99.90
12682;DHT22;6405;59.208;18.216;2023-01-15T16:57:00;2.80;99.90
12682;DHT22;6405;59.208;18.216;2023-01-15T17:04:37;2.80;99.90
12682;DHT22;6405;59.208;18.216;2023-01-15T17:09:35;2.80;99.90
12682;DHT22;6405;59.208;18.216;2023-01-15T17:12:21;2.80;99.90
12682;DHT22;6405;59.208;18.216;2023-01-15T17:14:51;2.80;99.90
12682;DHT22;6405;59.208;18.216;2023-01-15T17:19:51;2.70;99.90
12682;DHT22;6405;59.208;18.216;2023-01-15T17:22:25;2.70;99.90
12682;DHT22;6405;59.208;18.216;2023-01-15T17:24:58;2.60;99.90
12682;DHT22;6405;59.208;18.216;2023-01-15T17:27:26;2.70;99.90
12682;DHT22;6405;59.208;18.216;2023-01-15T17:29:53;2.70;99.90
12682;DHT22;6405;59.208;18.216;2023-01-15T17:32:26;2.70;99.90
12682;DHT22;6405;59.208;18.216;2023-01-15T17:34:54;2.80;99.90
12682;DHT22;6405;59.208;18.216;2023-01-15T17:37:22;2.70;99.90
12682;DHT22;6405;59.208;18.216;2023-01-15T17:39:52;2.70;99.90
12682;DHT22;6405;59.208;18.216;2023-01-15T17:42:19;2.60;99.90
12682;DHT22;6405;59.208;18.216;2023-01-15T17:44:45;2.60;99.90
12682;DHT22;6405;59.208;18.216;2023-01-15T17:47:12;2.60;99.90
12682;DHT22;6405;59.208;18.216;2023-01-15T17:49:39;2.60;99.90
12682;DHT22;6405;59.208;18.216;2023-01-15T17:52:09;2.70;99.90
12682;DHT22;6405;59.208;18.216;2023-01-15T17:54:39;2.70;99.90
12682;DHT22;6405;59.208;18.216;2023-01-15T17:57:24;2.70;99.90
12682;DHT22;6405;59.208;18.216;2023-01-15T18:00:10;2.70;99.90
12682;DHT22;6405;59.208;18.216;2023-01-15T18:02:54;2.70;99.90
12682;DHT22;6405;59.208;18.216;2023-01-15T18:05:40;2.70;99.90
12682;DHT22;6405;59.208;18.216;2023-01-15T18:08:09;2.70;99.90
12682;DHT22;6405;59.208;18.216;2023-01-15T18:10:36;2.60;99.90
12682;DHT22;6405;59.208;18.216;2023-01-15T18:13:03;2.60;99.90
12682;DHT22;6405;59.208;18.216;2023-01-15T18:15:32;2.60;99.90
12682;DHT22;6405;59.208;18.216;2023-01-15T18:17:59;2.50;99.90
12682;DHT22;6405;59.208;18.216;2023-01-15T18:20:27;2.50;99.90
12682;DHT22;6405;59.208;18.216;2023-01-15T18:22:53;2.50;99.90